sensor_id;sensor_type;location;lat;lon;timestamp;temperature;humidity
27534;DHT22;14973;51.460;7.008;2023-05-07T00:00:16;15.50;99.90
27534;DHT22;14973;51.460;7.008;2023-05-07T00:02:47;15.40;99.90
27534;DHT22;14973;51.460;7.008;2023-05-07T00:05:12;15.50;99.90
27534;DHT22;14973;51.460;7.008;2023-05-07T00:07:38;15.40;99.90
27534;DHT22;14973;51.460;7.008;2023-05-07T00:10:04;15.40;99.90
27534;DHT22;14973;51.460;7.008;2023-05-07T00:12:31;15.40;99.90
27534;DHT22;14973;51.460;7.008;2023-05-07T00:14:59;15.40;99.90
27534;DHT22;14973;51.460;7.008;2023-05-07T00:17:24;15.40;99.90
27534;DHT22;14973;51.460;7.008;2023-05-07T00:19:50;15.40;99.90
27534;DHT22;14973;51.460;7.008;2023-05-07T00:22:16;15.40;99.90
27534;DHT22;14973;51.460;7.008;2023-05-07T00:24:41;15.40;99.90
27534;DHT22;14973;51.460;7.008;2023-05-07T00:27:07;15.40;99.90
27534;DHT22;14973;51.460;7.008;2023-05-07T00:29:33;15.40;99.90
27534;DHT22;14973;51.460;7.008;2023-05-07T00:31:58;15.30;99.90
27534;DHT22;14973;51.460;7.008;2023-05-07T00:34:24;15.30;99.90
27534;DHT22;14973;51.460;7.008;2023-05-07T00:36:49;15.20;99.90
27534;DHT22;14973;51.460;7.008;2023-05-07T00:39:15;15.30;99.90
27534;DHT22;14973;51.460;7.008;2023-05-07T00:41:41;15.20;99.90
27534;DHT22;14973;51.460;7.008;2023-05-07T00:44:09;15.30;99.90
27534;DHT22;14973;51.460;7.008;2023-05-07T00:46:34;15.20;99.90
27534;DHT22;14973;51.460;7.008;2023-05-07T00:49:00;15.20;99.90
27534;DHT22;14973;51.460;7.008;2023-05-07T00:51:26;15.20;99.90
27534;DHT22;14973;51.460;7.008;2023-05-07T00:53:54;15.10;99.90
27534;DHT22;14973;51.460;7.008;2023-05-07T00:56:21;15.10;99.90
27534;DHT22;14973;51.460;7.008;2023-05-07T00:58:49;15.00;99.90
27534;DHT22;14973;51.460;7.008;2023-05-07T01:01:15;14.90;99.90
27534;DHT22;14973;51.460;7.008;2023-05-07T01:03:43;14.80;99.90
27534;DHT22;14973;51.460;7.008;2023-05-07T01:06:09;14.80;99.90
27534;DHT22;14973;51.460;7.008;2023-05-07T01:08:35;14.70;99.90
27534;DHT22;14973;51.460;7.008;2023-05-07T01:11:01;14.60;99.90
27534;DHT22;14973;51.460;7.008;2023-05-07T01:13:27;14.60;99.90
27534;DHT22;14973;51.460;7.008;2023-05-07T01:15:52;14.60;99.90
27534;DHT22;14973;51.460;7.008;2023-05-07T01:18:18;14.60;99.90
27534;DHT22;14973;51.460;7.008;2023-05-07T01:20:44;14.70;99.90
27534;DHT22;14973;51.460;7.008;2023-05-07T01:23:10;14.70;99.90
27534;DHT22;14973;51.460;7.008;2023-05-07T01:25:36;14.60;99.90
27534;DHT22;14973;51.460;7.008;2023-05-07T01:28:01;14.60;99.90
27534;DHT22;14973;51.460;7.008;2023-05-07T01:30:27;14.60;99.90
27534;DHT22;14973;51.460;7.008;2023-05-07T01:32:58;14.60;99.90
27534;DHT22;14973;51.460;7.008;2023-05-07T01:35:27;14.60;99.90
27534;DHT22;14973;51.460;7.008;2023-05-07T01:37:54;14.60;99.90
27534;DHT22;14973;51.460;7.008;2023-05-07T01:40:22;14.70;99.90
27534;DHT22;14973;51.460;7.008;2023-05-07T01:42:49;14.70;99.90
27534;DHT22;14973;51.460;7.008;2023-05-07T01:45:15;14.70;99.90
27534;DHT22;14973;51.460;7.008;2023-05-07T01:47:40;14.70;99.90
27534;DHT22;14973;51.460;7.008;2023-05-07T01:50:06;14.70;99.90
27534;DHT22;14973;51.460;7.008;2023-05-07T01:52:33;14.70;99.90
27534;DHT22;14973;51.460;7.008;2023-05-07T01:54:59;14.70;99.90
27534;DHT22;14973;51.460;7.008;2023-05-07T01:57:25;14.70;99.90
27534;DHT22;14973;51.460;7.008;2023-05-07T01:59:51;14.70;99.90
27534;DHT22;14973;51.460;7.008;2023-05-07T02:02:16;14.70;99.90
27534;DHT22;14973;51.460;7.008;2023-05-07T02:04:42;14.60;99.90
27534;DHT22;14973;51.460;7.008;2023-05-07T02:07:07;14.70;99.90
27534;DHT22;14973;51.460;7.008;2023-05-07T02:09:35;14.70;99.90
27534;DHT22;14973;51.460;7.008;2023-05-07T02:12:01;14.60;99.90
27534;DHT22;14973;51.460;7.008;2023-05-07T02:14:27;14.60;99.90
27534;DHT22;14973;51.460;7.008;2023-05-07T02:16:52;14.60;99.90
27534;DHT22;14973;51.460;7.008;2023-05-07T02:19:18;14.60;99.90
27534;DHT22;14973;51.460;7.008;2023-05-07T02:21:46;14.50;99.90
27534;DHT22;14973;51.460;7.008;2023-05-07T02:24:12;14.50;99.90
27534;DHT22;14973;51.460;7.008;2023-05-07T02:26:43;14.50;99.90
27534;DHT22;14973;51.460;7.008;2023-05-07T02:29:09;14.50;99.90
27534;DHT22;14973;51.460;7.008;2023-05-07T02:31:37;14.50;99.90
27534;DHT22;14973;51.460;7.008;2023-05-07T02:34:03;14.50;99.90
27534;DHT22;14973;51.460;7.008;2023-05-07T02:36:29;14.50;99.90
27534;DHT22;14973;51.460;7.008;2023-05-07T02:38:54;14.50;99.90
27534;DHT22;14973;51.460;7.008;2023-05-07T02:41:20;14.50;99.90
27534;DHT22;14973;51.460;7.008;2023-05-07T02:43:46;14.40;99.90
27534;DHT22;14973;51.460;7.008;2023-05-07T02:46:11;14.40;99.90
27534;DHT22;14973;51.460;7.008;2023-05-07T02:48:37;14.40;99.90
27534;DHT22;14973;51.460;7.008;2023-05-07T02:51:03;14.40;99.90
27534;DHT22;14973;51.460;7.008;2023-05-07T02:53:28;14.40;99.90
27534;DHT22;14973;51.460;7.008;2023-05-07T02:55:58;14.30;99.90
27534;DHT22;14973;51.460;7.008;2023-05-07T02:58:24;14.30;99.90
27534;DHT22;14973;51.460;7.008;2023-05-07T03:00:50;14.30;99.90
27534;DHT22;14973;51.460;7.008;2023-05-07T03:03:16;14.30;99.90
27534;DHT22;14973;51.460;7.008;2023-05-07T03:05:42;14.20;99.90
27534;DHT22;14973;51.460;7.008;2023-05-07T03:08:08;14.30;99.90
27534;DHT22;14973;51.460;7.008;2023-05-07T03:10:33;14.20;99.90
27534;DHT22;14973;51.460;7.008;2023-05-07T03:13:02;14.20;99.90
27534;DHT22;14973;51.460;7.008;2023-05-07T03:15:28;14.20;99.90
27534;DHT22;14973;51.460;7.008;2023-05-07T03:17:53;14.10;99.90
27534;DHT22;14973;51.460;7.008;2023-05-07T03:20:19;14.00;99.90
27534;DHT22;14973;51.460;7.008;2023-05-07T03:22:45;14.10;99.90
27534;DHT22;14973;51.460;7.008;2023-05-07T03:25:10;14.00;99.90
27534;DHT22;14973;51.460;7.008;2023-05-07T03:27:36;14.10;99.90
27534;DHT22;14973;51.460;7.008;2023-05-07T03:30:01;14.00;99.90
27534;DHT22;14973;51.460;7.008;2023-05-07T03:32:27;14.00;99.90
27534;DHT22;14973;51.460;7.008;2023-05-07T03:34:53;14.00;99.90
27534;DHT22;14973;51.460;7.008;2023-05-07T03:37:18;14.00;99.90
27534;DHT22;14973;51.460;7.008;2023-05-07T03:39:44;14.10;99.90
27534;DHT22;14973;51.460;7.008;2023-05-07T03:42:10;14.00;99.90
27534;DHT22;14973;51.460;7.008;2023-05-07T03:44:35;14.00;99.90
27534;DHT22;14973;51.460;7.008;2023-05-07T03:47:04;13.90;99.90
27534;DHT22;14973;51.460;7.008;2023-05-07T03:49:29;13.90;99.90
27534;DHT22;14973;51.460;7.008;2023-05-07T03:51:55;13.90;99.90
27534;DHT22;14973;51.460;7.008;2023-05-07T03:54:21;13.90;99.90
27534;DHT22;14973;51.460;7.008;2023-05-07T03:56:46;13.90;99.90
27534;DHT22;14973;51.460;7.008;2023-05-07T03:59:12;13.90;99.90
27534;DHT22;14973;51.460;7.008;2023-05-07T04:01:38;13.90;99.90
27534;DHT22;14973;51.460;7.008;2023-05-07T04:04:04;13.90;99.90
27534;DHT22;14973;51.460;7.008;2023-05-07T04:06:29;14.00;99.90
27534;DHT22;14973;51.460;7.008;2023-05-07T04:08:55;14.00;99.90
27534;DHT22;14973;51.460;7.008;2023-05-07T04:11:21;14.00;99.90
27534;DHT22;14973;51.460;7.008;2023-05-07T04:13:46;14.00;99.90
27534;DHT22;14973;51.460;7.008;2023-05-07T04:16:12;14.00;99.90
27534;DHT22;14973;51.460;7.008;2023-05-07T04:18:38;14.00;99.90
27534;DHT22;14973;51.460;7.008;2023-05-07T04:21:04;14.00;99.90
27534;DHT22;14973;51.460;7.008;2023-05-07T04:23:29;14.00;99.90
27534;DHT22;14973;51.460;7.008;2023-05-07T04:25:55;14.00;99.90
27534;DHT22;14973;51.460;7.008;2023-05-07T04:28:21;14.00;99.90
27534;DHT22;14973;51.460;7.008;2023-05-07T04:30:46;14.00;99.90
27534;DHT22;14973;51.460;7.008;2023-05-07T04:33:13;14.10;99.90
27534;DHT22;14973;51.460;7.008;2023-05-07T04:35:39;14.10;99.90
27534;DHT22;14973;51.460;7.008;2023-05-07T04:38:04;14.20;99.90
27534;DHT22;14973;51.460;7.008;2023-05-07T04:40:30;14.20;99.90
27534;DHT22;14973;51.460;7.008;2023-05-07T04:42:56;14.20;99.90
27534;DHT22;14973;51.460;7.008;2023-05-07T04:45:21;14.30;99.90
27534;DHT22;14973;51.460;7.008;2023-05-07T04:47:47;14.30;99.90
27534;DHT22;14973;51.460;7.008;2023-05-07T04:50:12;14.30;99.90
27534;DHT22;14973;51.460;7.008;2023-05-07T04:52:38;14.30;99.90
27534;DHT22;14973;51.460;7.008;2023-05-07T04:55:04;14.30;99.90
27534;DHT22;14973;51.460;7.008;2023-05-07T04:57:29;14.30;99.90
27534;DHT22;14973;51.460;7.008;2023-05-07T04:59:55;14.30;99.90
27534;DHT22;14973;51.460;7.008;2023-05-07T05:02:20;14.40;99.90
27534;DHT22;14973;51.460;7.008;2023-05-07T05:04:46;14.40;99.90
27534;DHT22;14973;51.460;7.008;2023-05-07T05:07:12;14.60;99.90
27534;DHT22;14973;51.460;7.008;2023-05-07T05:09:37;14.60;99.90
27534;DHT22;14973;51.460;7.008;2023-05-07T05:12:03;14.70;99.90
27534;DHT22;14973;51.460;7.008;2023-05-07T05:14:29;14.90;99.90
27534;DHT22;14973;51.460;7.008;2023-05-07T05:16:54;15.00;99.90
27534;DHT22;14973;51.460;7.008;2023-05-07T05:19:20;15.00;99.90
27534;DHT22;14973;51.460;7.008;2023-05-07T05:21:46;15.10;99.90
27534;DHT22;14973;51.460;7.008;2023-05-07T05:24:11;15.10;99.90
27534;DHT22;14973;51.460;7.008;2023-05-07T05:26:37;15.30;99.90
27534;DHT22;14973;51.460;7.008;2023-05-07T05:29:02;15.40;99.90
27534;DHT22;14973;51.460;7.008;2023-05-07T05:31:28;15.80;99.90
27534;DHT22;14973;51.460;7.008;2023-05-07T05:33:53;16.20;99.90
27534;DHT22;14973;51.460;7.008;2023-05-07T05:36:19;16.70;99.90
27534;DHT22;14973;51.460;7.008;2023-05-07T05:38:44;16.90;99.40
27534;DHT22;14973;51.460;7.008;2023-05-07T05:41:10;16.80;99.90
27534;DHT22;14973;51.460;7.008;2023-05-07T05:43:35;16.80;99.90
27534;DHT22;14973;51.460;7.008;2023-05-07T05:46:01;17.00;99.90
27534;DHT22;14973;51.460;7.008;2023-05-07T05:48:28;17.60;95.10
27534;DHT22;14973;51.460;7.008;2023-05-07T05:50:54;18.10;80.30
27534;DHT22;14973;51.460;7.008;2023-05-07T05:53:19;18.70;52.30
27534;DHT22;14973;51.460;7.008;2023-05-07T05:55:45;18.80;1.00
27534;DHT22;14973;51.460;7.008;2023-05-07T05:58:11;18.70;1.00
27534;DHT22;14973;51.460;7.008;2023-05-07T06:00:36;19.10;1.00
27534;DHT22;14973;51.460;7.008;2023-05-07T06:03:02;19.50;99.90
27534;DHT22;14973;51.460;7.008;2023-05-07T06:05:27;20.10;99.90
27534;DHT22;14973;51.460;7.008;2023-05-07T06:07:53;20.40;99.90
27534;DHT22;14973;51.460;7.008;2023-05-07T06:10:19;20.60;1.00
27534;DHT22;14973;51.460;7.008;2023-05-07T06:12:44;20.40;99.90
27534;DHT22;14973;51.460;7.008;2023-05-07T06:15:10;20.20;99.90
27534;DHT22;14973;51.460;7.008;2023-05-07T06:17:35;20.20;41.50
27534;DHT22;14973;51.460;7.008;2023-05-07T06:20:01;20.00;99.90
27534;DHT22;14973;51.460;7.008;2023-05-07T06:22:26;20.10;99.90
27534;DHT22;14973;51.460;7.008;2023-05-07T06:24:52;20.10;36.30
27534;DHT22;14973;51.460;7.008;2023-05-07T06:27:18;20.10;1.00
27534;DHT22;14973;51.460;7.008;2023-05-07T06:29:43;19.50;99.90
27534;DHT22;14973;51.460;7.008;2023-05-07T06:32:09;19.60;9.70
27534;DHT22;14973;51.460;7.008;2023-05-07T06:34:35;19.60;99.90
27534;DHT22;14973;51.460;7.008;2023-05-07T06:37:01;19.50;1.00
27534;DHT22;14973;51.460;7.008;2023-05-07T06:39:27;19.20;56.60
27534;DHT22;14973;51.460;7.008;2023-05-07T06:41:52;18.80;72.70
27534;DHT22;14973;51.460;7.008;2023-05-07T06:44:18;19.00;99.90
27534;DHT22;14973;51.460;7.008;2023-05-07T06:46:43;18.70;1.00
27534;DHT22;14973;51.460;7.008;2023-05-07T06:49:09;18.70;1.00
27534;DHT22;14973;51.460;7.008;2023-05-07T06:51:35;18.60;1.00
27534;DHT22;14973;51.460;7.008;2023-05-07T06:54:00;18.50;1.00
27534;DHT22;14973;51.460;7.008;2023-05-07T06:56:28;18.50;1.00
27534;DHT22;14973;51.460;7.008;2023-05-07T06:58:53;18.60;1.00
27534;DHT22;14973;51.460;7.008;2023-05-07T07:01:19;18.60;99.90
27534;DHT22;14973;51.460;7.008;2023-05-07T07:03:45;18.70;1.00
27534;DHT22;14973;51.460;7.008;2023-05-07T07:06:10;18.50;35.90
27534;DHT22;14973;51.460;7.008;2023-05-07T07:08:36;18.50;99.90
27534;DHT22;14973;51.460;7.008;2023-05-07T07:11:04;18.90;99.90
27534;DHT22;14973;51.460;7.008;2023-05-07T07:13:30;19.30;99.90
27534;DHT22;14973;51.460;7.008;2023-05-07T07:15:55;19.40;1.00
27534;DHT22;14973;51.460;7.008;2023-05-07T07:18:21;19.40;1.00
27534;DHT22;14973;51.460;7.008;2023-05-07T07:20:46;19.80;99.90
27534;DHT22;14973;51.460;7.008;2023-05-07T07:23:12;20.30;1.00
27534;DHT22;14973;51.460;7.008;2023-05-07T07:25:38;20.50;1.00
27534;DHT22;14973;51.460;7.008;2023-05-07T07:28:03;20.80;99.90
27534;DHT22;14973;51.460;7.008;2023-05-07T07:30:29;21.00;99.90
27534;DHT22;14973;51.460;7.008;2023-05-07T07:32:54;21.20;1.00
27534;DHT22;14973;51.460;7.008;2023-05-07T07:35:23;21.20;1.00
27534;DHT22;14973;51.460;7.008;2023-05-07T07:37:48;21.30;1.00
27534;DHT22;14973;51.460;7.008;2023-05-07T07:40:15;21.30;1.00
27534;DHT22;14973;51.460;7.008;2023-05-07T07:42:41;21.40;1.00
27534;DHT22;14973;51.460;7.008;2023-05-07T07:45:06;21.30;1.00
27534;DHT22;14973;51.460;7.008;2023-05-07T07:47:32;21.30;1.00
27534;DHT22;14973;51.460;7.008;2023-05-07T07:49:58;21.40;1.00
27534;DHT22;14973;51.460;7.008;2023-05-07T07:52:23;21.60;1.00
27534;DHT22;14973;51.460;7.008;2023-05-07T07:54:49;21.50;99.90
27534;DHT22;14973;51.460;7.008;2023-05-07T07:57:14;21.50;99.90
27534;DHT22;14973;51.460;7.008;2023-05-07T07:59:40;21.30;99.90
27534;DHT22;14973;51.460;7.008;2023-05-07T08:02:08;21.20;1.00
27534;DHT22;14973;51.460;7.008;2023-05-07T08:04:34;21.20;99.90
27534;DHT22;14973;51.460;7.008;2023-05-07T08:07:00;21.30;99.90
27534;DHT22;14973;51.460;7.008;2023-05-07T08:09:26;21.00;1.00
27534;DHT22;14973;51.460;7.008;2023-05-07T08:11:52;20.90;99.90
27534;DHT22;14973;51.460;7.008;2023-05-07T08:14:18;20.80;1.00
27534;DHT22;14973;51.460;7.008;2023-05-07T08:16:43;21.20;1.00
27534;DHT22;14973;51.460;7.008;2023-05-07T08:19:12;21.70;99.90
27534;DHT22;14973;51.460;7.008;2023-05-07T08:21:41;22.00;99.90
27534;DHT22;14973;51.460;7.008;2023-05-07T08:24:06;22.60;99.90
27534;DHT22;14973;51.460;7.008;2023-05-07T08:26:32;22.90;99.90
27534;DHT22;14973;51.460;7.008;2023-05-07T08:28:58;22.90;99.90
27534;DHT22;14973;51.460;7.008;2023-05-07T08:31:23;23.00;99.90
27534;DHT22;14973;51.460;7.008;2023-05-07T08:33:58;22.80;49.30
27534;DHT22;14973;51.460;7.008;2023-05-07T08:36:24;22.80;30.40
27534;DHT22;14973;51.460;7.008;2023-05-07T08:38:49;22.60;29.80
27534;DHT22;14973;51.460;7.008;2023-05-07T08:41:15;23.30;19.70
27534;DHT22;14973;51.460;7.008;2023-05-07T08:43:41;24.20;1.00
27534;DHT22;14973;51.460;7.008;2023-05-07T08:46:08;25.20;1.00
27534;DHT22;14973;51.460;7.008;2023-05-07T08:48:34;25.30;1.00
27534;DHT22;14973;51.460;7.008;2023-05-07T08:51:00;25.10;1.00
27534;DHT22;14973;51.460;7.008;2023-05-07T08:53:26;25.20;1.00
27534;DHT22;14973;51.460;7.008;2023-05-07T08:55:51;25.30;1.00
27534;DHT22;14973;51.460;7.008;2023-05-07T08:58:18;25.70;1.00
27534;DHT22;14973;51.460;7.008;2023-05-07T09:00:46;26.30;1.00
27534;DHT22;14973;51.460;7.008;2023-05-07T09:03:12;26.20;1.00
27534;DHT22;14973;51.460;7.008;2023-05-07T09:05:38;26.40;1.00
27534;DHT22;14973;51.460;7.008;2023-05-07T09:08:06;27.30;1.00
27534;DHT22;14973;51.460;7.008;2023-05-07T09:10:33;28.70;1.00
27534;DHT22;14973;51.460;7.008;2023-05-07T09:12:59;29.70;1.00
27534;DHT22;14973;51.460;7.008;2023-05-07T09:15:25;31.00;99.90
27534;DHT22;14973;51.460;7.008;2023-05-07T09:17:51;31.60;99.90
27534;DHT22;14973;51.460;7.008;2023-05-07T09:20:16;31.50;99.90
27534;DHT22;14973;51.460;7.008;2023-05-07T09:22:42;30.70;99.90
27534;DHT22;14973;51.460;7.008;2023-05-07T09:25:09;31.00;99.90
27534;DHT22;14973;51.460;7.008;2023-05-07T09:27:35;32.00;99.90
27534;DHT22;14973;51.460;7.008;2023-05-07T09:30:04;32.10;99.90
27534;DHT22;14973;51.460;7.008;2023-05-07T09:32:34;31.50;99.90
27534;DHT22;14973;51.460;7.008;2023-05-07T09:34:59;30.70;99.90
27534;DHT22;14973;51.460;7.008;2023-05-07T09:37:25;30.50;99.90
27534;DHT22;14973;51.460;7.008;2023-05-07T09:39:51;30.80;99.90
27534;DHT22;14973;51.460;7.008;2023-05-07T09:42:22;30.50;99.90
27534;DHT22;14973;51.460;7.008;2023-05-07T09:44:47;29.70;99.90
27534;DHT22;14973;51.460;7.008;2023-05-07T09:47:14;29.70;99.90
27534;DHT22;14973;51.460;7.008;2023-05-07T09:49:43;30.10;99.90
27534;DHT22;14973;51.460;7.008;2023-05-07T09:52:10;30.60;99.90
27534;DHT22;14973;51.460;7.008;2023-05-07T09:54:36;31.10;99.90
27534;DHT22;14973;51.460;7.008;2023-05-07T09:57:03;30.90;99.90
27534;DHT22;14973;51.460;7.008;2023-05-07T09:59:29;30.90;99.90
27534;DHT22;14973;51.460;7.008;2023-05-07T10:01:56;29.80;99.90
27534;DHT22;14973;51.460;7.008;2023-05-07T10:04:23;29.20;99.90
27534;DHT22;14973;51.460;7.008;2023-05-07T10:06:48;28.50;99.90
27534;DHT22;14973;51.460;7.008;2023-05-07T10:09:14;28.30;99.90
27534;DHT22;14973;51.460;7.008;2023-05-07T10:11:40;27.80;99.90
27534;DHT22;14973;51.460;7.008;2023-05-07T10:14:06;27.30;99.90
27534;DHT22;14973;51.460;7.008;2023-05-07T10:16:32;27.00;99.90
27534;DHT22;14973;51.460;7.008;2023-05-07T10:19:04;26.80;99.90
27534;DHT22;14973;51.460;7.008;2023-05-07T10:21:30;26.60;99.90
27534;DHT22;14973;51.460;7.008;2023-05-07T10:24:03;26.50;99.90
27534;DHT22;14973;51.460;7.008;2023-05-07T10:26:31;25.90;99.90
27534;DHT22;14973;51.460;7.008;2023-05-07T10:28:59;25.80;99.90
27534;DHT22;14973;51.460;7.008;2023-05-07T10:33:58;25.30;99.90
27534;DHT22;14973;51.460;7.008;2023-05-07T10:36:25;24.60;99.90
27534;DHT22;14973;51.460;7.008;2023-05-07T10:38:51;24.40;99.90
27534;DHT22;14973;51.460;7.008;2023-05-07T10:41:17;24.70;99.90
27534;DHT22;14973;51.460;7.008;2023-05-07T10:43:44;24.90;99.90
27534;DHT22;14973;51.460;7.008;2023-05-07T10:46:19;25.20;99.90
27534;DHT22;14973;51.460;7.008;2023-05-07T10:51:26;25.40;99.90
27534;DHT22;14973;51.460;7.008;2023-05-07T10:56:37;25.20;99.90
27534;DHT22;14973;51.460;7.008;2023-05-07T11:04:21;25.10;99.90
27534;DHT22;14973;51.460;7.008;2023-05-07T11:09:54;25.60;99.90
27534;DHT22;14973;51.460;7.008;2023-05-07T11:15:05;26.00;99.90
27534;DHT22;14973;51.460;7.008;2023-05-07T11:17:32;26.20;99.90
27534;DHT22;14973;51.460;7.008;2023-05-07T11:20:00;26.10;99.90
27534;DHT22;14973;51.460;7.008;2023-05-07T11:22:36;26.10;99.90
27534;DHT22;14973;51.460;7.008;2023-05-07T11:25:02;26.30;99.90
27534;DHT22;14973;51.460;7.008;2023-05-07T11:27:29;26.10;99.90
27534;DHT22;14973;51.460;7.008;2023-05-07T11:29:54;25.30;99.90
27534;DHT22;14973;51.460;7.008;2023-05-07T11:32:24;25.10;99.90
27534;DHT22;14973;51.460;7.008;2023-05-07T11:34:56;25.10;99.90
27534;DHT22;14973;51.460;7.008;2023-05-07T11:37:22;25.40;99.90
27534;DHT22;14973;51.460;7.008;2023-05-07T11:39:48;25.20;99.90
27534;DHT22;14973;51.460;7.008;2023-05-07T11:42:31;25.40;99.90
27534;DHT22;14973;51.460;7.008;2023-05-07T11:44:57;25.40;99.90
27534;DHT22;14973;51.460;7.008;2023-05-07T11:47:22;24.90;99.90
27534;DHT22;14973;51.460;7.008;2023-05-07T11:49:48;24.50;99.90
27534;DHT22;14973;51.460;7.008;2023-05-07T11:52:14;24.70;99.90
27534;DHT22;14973;51.460;7.008;2023-05-07T11:54:40;25.10;99.90
27534;DHT22;14973;51.460;7.008;2023-05-07T11:57:06;25.20;99.90
27534;DHT22;14973;51.460;7.008;2023-05-07T11:59:41;25.40;99.90
27534;DHT22;14973;51.460;7.008;2023-05-07T12:02:09;25.50;99.90
27534;DHT22;14973;51.460;7.008;2023-05-07T12:04:35;25.60;99.90
27534;DHT22;14973;51.460;7.008;2023-05-07T12:07:01;25.50;99.90
27534;DHT22;14973;51.460;7.008;2023-05-07T12:09:27;25.30;99.90
27534;DHT22;14973;51.460;7.008;2023-05-07T12:11:52;24.90;99.90
27534;DHT22;14973;51.460;7.008;2023-05-07T12:14:18;25.10;99.90
27534;DHT22;14973;51.460;7.008;2023-05-07T12:16:44;25.20;99.90
27534;DHT22;14973;51.460;7.008;2023-05-07T12:19:10;25.50;99.90
27534;DHT22;14973;51.460;7.008;2023-05-07T12:21:38;25.20;99.90
27534;DHT22;14973;51.460;7.008;2023-05-07T12:24:04;25.00;99.90
27534;DHT22;14973;51.460;7.008;2023-05-07T12:26:30;25.20;99.90
27534;DHT22;14973;51.460;7.008;2023-05-07T12:28:57;25.00;99.90
27534;DHT22;14973;51.460;7.008;2023-05-07T12:31:22;25.00;99.90
27534;DHT22;14973;51.460;7.008;2023-05-07T12:33:48;24.70;99.90
27534;DHT22;14973;51.460;7.008;2023-05-07T12:36:13;24.50;99.90
27534;DHT22;14973;51.460;7.008;2023-05-07T12:38:39;24.40;99.90
27534;DHT22;14973;51.460;7.008;2023-05-07T12:41:06;24.50;99.90
27534;DHT22;14973;51.460;7.008;2023-05-07T12:43:32;24.30;99.90
27534;DHT22;14973;51.460;7.008;2023-05-07T12:46:03;23.50;99.90
27534;DHT22;14973;51.460;7.008;2023-05-07T12:48:29;23.30;99.90
27534;DHT22;14973;51.460;7.008;2023-05-07T12:50:58;23.00;99.90
27534;DHT22;14973;51.460;7.008;2023-05-07T12:53:25;23.20;99.90
27534;DHT22;14973;51.460;7.008;2023-05-07T12:55:52;23.20;99.90
27534;DHT22;14973;51.460;7.008;2023-05-07T12:58:22;23.10;99.90
27534;DHT22;14973;51.460;7.008;2023-05-07T13:00:49;23.00;99.90
27534;DHT22;14973;51.460;7.008;2023-05-07T13:03:26;22.60;99.90
27534;DHT22;14973;51.460;7.008;2023-05-07T13:05:55;22.60;99.90
27534;DHT22;14973;51.460;7.008;2023-05-07T13:08:39;22.40;99.90
27534;DHT22;14973;51.460;7.008;2023-05-07T13:11:07;22.20;99.90
27534;DHT22;14973;51.460;7.008;2023-05-07T13:13:34;22.10;1.00
27534;DHT22;14973;51.460;7.008;2023-05-07T13:16:00;21.90;1.00
27534;DHT22;14973;51.460;7.008;2023-05-07T13:18:26;21.80;1.00
27534;DHT22;14973;51.460;7.008;2023-05-07T13:20:52;21.70;1.00
27534;DHT22;14973;51.460;7.008;2023-05-07T13:23:17;21.60;1.00
27534;DHT22;14973;51.460;7.008;2023-05-07T13:25:43;21.50;1.00
27534;DHT22;14973;51.460;7.008;2023-05-07T13:28:09;21.40;1.00
27534;DHT22;14973;51.460;7.008;2023-05-07T13:30:34;21.60;1.00
27534;DHT22;14973;51.460;7.008;2023-05-07T13:33:00;21.50;1.00
27534;DHT22;14973;51.460;7.008;2023-05-07T13:35:25;21.40;1.00
27534;DHT22;14973;51.460;7.008;2023-05-07T13:37:51;21.40;1.00
27534;DHT22;14973;51.460;7.008;2023-05-07T13:40:17;21.20;1.00
27534;DHT22;14973;51.460;7.008;2023-05-07T13:42:43;21.00;1.00
27534;DHT22;14973;51.460;7.008;2023-05-07T13:45:09;21.00;1.00
27534;DHT22;14973;51.460;7.008;2023-05-07T13:47:34;21.00;1.00
27534;DHT22;14973;51.460;7.008;2023-05-07T13:50:00;21.10;1.00
27534;DHT22;14973;51.460;7.008;2023-05-07T13:52:25;21.10;1.00
27534;DHT22;14973;51.460;7.008;2023-05-07T13:54:51;21.00;1.00
27534;DHT22;14973;51.460;7.008;2023-05-07T13:57:18;20.50;99.90
27534;DHT22;14973;51.460;7.008;2023-05-07T13:59:43;20.10;1.00
27534;DHT22;14973;51.460;7.008;2023-05-07T14:02:09;19.70;99.90
27534;DHT22;14973;51.460;7.008;2023-05-07T14:04:34;19.30;1.00
27534;DHT22;14973;51.460;7.008;2023-05-07T14:07:00;19.10;1.00
27534;DHT22;14973;51.460;7.008;2023-05-07T14:09:25;18.80;1.00
27534;DHT22;14973;51.460;7.008;2023-05-07T14:11:51;18.60;25.70
27534;DHT22;14973;51.460;7.008;2023-05-07T14:14:17;18.50;22.60
27534;DHT22;14973;51.460;7.008;2023-05-07T14:16:43;18.30;46.90
27534;DHT22;14973;51.460;7.008;2023-05-07T14:19:09;18.10;80.50
27534;DHT22;14973;51.460;7.008;2023-05-07T14:21:34;18.00;99.90
27534;DHT22;14973;51.460;7.008;2023-05-07T14:24:00;18.00;99.90
27534;DHT22;14973;51.460;7.008;2023-05-07T14:26:26;17.90;99.90
27534;DHT22;14973;51.460;7.008;2023-05-07T14:28:52;18.10;99.90
27534;DHT22;14973;51.460;7.008;2023-05-07T14:31:20;18.10;99.90
27534;DHT22;14973;51.460;7.008;2023-05-07T14:33:46;18.20;99.90
27534;DHT22;14973;51.460;7.008;2023-05-07T14:36:11;18.40;99.90
27534;DHT22;14973;51.460;7.008;2023-05-07T14:38:37;18.40;99.90
27534;DHT22;14973;51.460;7.008;2023-05-07T14:41:02;18.40;99.90
27534;DHT22;14973;51.460;7.008;2023-05-07T14:43:28;18.30;99.90
27534;DHT22;14973;51.460;7.008;2023-05-07T14:45:54;18.20;99.90
27534;DHT22;14973;51.460;7.008;2023-05-07T14:48:19;18.10;99.90
27534;DHT22;14973;51.460;7.008;2023-05-07T14:50:46;18.00;99.90
27534;DHT22;14973;51.460;7.008;2023-05-07T14:53:12;17.90;99.90
27534;DHT22;14973;51.460;7.008;2023-05-07T14:55:37;17.80;99.90
27534;DHT22;14973;51.460;7.008;2023-05-07T14:58:03;17.70;99.90
27534;DHT22;14973;51.460;7.008;2023-05-07T15:00:28;17.70;99.90
27534;DHT22;14973;51.460;7.008;2023-05-07T15:02:55;17.80;99.90
27534;DHT22;14973;51.460;7.008;2023-05-07T15:05:25;17.80;99.90
27534;DHT22;14973;51.460;7.008;2023-05-07T15:07:50;17.90;99.90
27534;DHT22;14973;51.460;7.008;2023-05-07T15:10:16;18.00;99.90
27534;DHT22;14973;51.460;7.008;2023-05-07T15:12:42;18.20;99.90
27534;DHT22;14973;51.460;7.008;2023-05-07T15:15:07;18.30;99.90
27534;DHT22;14973;51.460;7.008;2023-05-07T15:17:33;18.40;99.90
27534;DHT22;14973;51.460;7.008;2023-05-07T15:19:58;18.50;99.90
27534;DHT22;14973;51.460;7.008;2023-05-07T15:22:24;18.50;99.90
27534;DHT22;14973;51.460;7.008;2023-05-07T15:24:50;18.60;99.90
27534;DHT22;14973;51.460;7.008;2023-05-07T15:27:15;18.70;99.90
27534;DHT22;14973;51.460;7.008;2023-05-07T15:29:42;18.80;99.90
27534;DHT22;14973;51.460;7.008;2023-05-07T15:32:08;18.80;99.90
27534;DHT22;14973;51.460;7.008;2023-05-07T15:34:33;18.90;99.90
27534;DHT22;14973;51.460;7.008;2023-05-07T15:36:59;18.80;99.90
27534;DHT22;14973;51.460;7.008;2023-05-07T15:39:25;18.90;99.90
27534;DHT22;14973;51.460;7.008;2023-05-07T15:41:50;19.00;99.90
27534;DHT22;14973;51.460;7.008;2023-05-07T15:44:16;19.20;99.90